Time;durP1;ratioP1;P1;durP2;ratioP2;P2;SDS_P1;SDS_P2;PMS_P1;PMS_P2;Temp;Humidity;BMP_temperature;BMP_pressure;BME280_temperature;BME280_humidity;BME280_pressure;Samples;Min_cycle;Max_cycle;Signal;HPM_P1;HPM_P2
2022/07/15 09:07:55;;;;;;;4.63;2.20;;;30.10;74.30;;;;;;5128768;27;20120;-75
2022/07/15 09:10:23;;;;;;;8.50;2.28;;;30.20;72.00;;;;;;5110159;28;20135;-76
2022/07/15 09:12:51;;;;;;;5.35;2.13;;;29.40;70.10;;;;;;5110080;28;20092;-75
2022/07/15 09:15:35;;;;;;;3.22;1.75;;;28.90;71.90;;;;;;5128807;28;20494;-76
2022/07/15 09:18:07;;;;;;;6.00;2.10;;;28.70;71.40;;;;;;5127985;28;20038;-76
2022/07/15 09:20:34;;;;;;;5.18;2.30;;;28.70;71.60;;;;;;5128321;28;20046;-76
2022/07/15 09:23:01;;;;;;;6.05;2.13;;;28.70;70.10;;;;;;5127435;28;20405;-75
2022/07/15 09:25:33;;;;;;;7.00;2.30;;;29.40;70.60;;;;;;5128425;28;20621;-74
2022/07/15 09:28:01;;;;;;;8.55;1.80;;;29.50;69.50;;;;;;5128378;28;20061;-74
2022/07/15 09:36:20;;;;;;;4.93;1.73;;;29.50;70.10;;;;;;5127531;28;20069;-74
2022/07/15 09:39:01;;;;;;;6.97;1.90;;;29.30;70.00;;;;;;5109286;28;20050;-73
2022/07/15 09:41:39;;;;;;;5.90;2.45;;;28.40;70.50;;;;;;5128194;28;20501;-74
2022/07/15 09:44:16;;;;;;;6.18;2.00;;;28.20;72.30;;;;;;5129910;28;20043;-74
2022/07/15 09:46:59;;;;;;;9.48;2.55;;;28.80;72.60;;;;;;5128601;28;20059;-74
2022/07/15 09:49:25;;;;;;;7.38;2.22;;;29.00;72.20;;;;;;5128037;28;20049;-74
2022/07/15 09:52:01;;;;;;;7.72;2.63;;;29.10;72.80;;;;;;5127088;28;20039;-74
2022/07/15 09:54:32;;;;;;;5.10;2.40;;;28.90;72.30;;;;;;5109546;28;20031;-74
2022/07/15 09:57:11;;;;;;;3.45;1.98;;;28.10;73.70;;;;;;5127651;28;20079;-74
2022/07/15 09:59:37;;;;;;;11.07;2.37;;;28.70;72.10;;;;;;5109655;28;20039;-74
2022/07/15 10:02:04;;;;;;;8.32;2.20;;;28.70;73.20;;;;;;5129384;28;20605;-74
2022/07/15 10:04:31;;;;;;;3.83;2.08;;;28.90;72.80;;;;;;5123749;27;20039;-73
2022/07/15 10:07:04;;;;;;;6.88;2.40;;;28.00;72.20;;;;;;5114009;28;20588;-74
2022/07/15 10:09:32;;;;;;;8.35;2.35;;;28.60;72.90;;;;;;5109438;27;20051;-74
2022/07/15 10:12:04;;;;;;;6.20;2.78;;;28.40;73.10;;;;;;5120008;27;20455;-74
2022/07/15 10:14:59;;;;;;;8.10;2.83;;;28.90;73.70;;;;;;5099326;27;20039;-73
2022/07/15 10:17:32;;;;;;;8.40;2.42;;;29.10;74.20;;;;;;5107933;27;20053;-73
2022/07/15 10:20:28;;;;;;;3.17;2.25;;;28.50;74.80;;;;;;5087682;28;20040;-73
2022/07/15 10:23:16;;;;;;;5.70;2.42;;;29.10;73.60;;;;;;5094681;28;20036;-73
2022/07/15 10:25:45;;;;;;;6.38;2.38;;;28.30;73.80;;;;;;5110931;28;20046;-73
2022/07/15 10:28:17;;;;;;;3.88;2.13;;;28.10;74.70;;;;;;5105264;28;20044;-73
2022/07/15 10:30:43;;;;;;;6.18;2.65;;;27.80;74.30;;;;;;5075057;28;20039;-74
2022/07/15 10:33:16;;;;;;;7.03;2.65;;;28.10;73.90;;;;;;5074688;28;20044;-74
2022/07/15 10:35:48;;;;;;;5.97;2.42;;;28.60;74.10;;;;;;5092458;28;20044;-74
2022/07/15 10:38:30;;;;;;;6.00;2.70;;;28.70;75.10;;;;;;5074174;28;20389;-74
2022/07/15 10:41:03;;;;;;;4.65;2.42;;;28.70;74.30;;;;;;5092402;28;20386;-74
2022/07/15 10:43:49;;;;;;;4.55;2.35;;;28.00;72.80;;;;;;5092800;28;20510;-73
2022/07/15 10:46:20;;;;;;;9.50;2.85;;;28.00;72.20;;;;;;5106651;28;20051;-73
2022/07/15 10:48:51;;;;;;;10.45;2.72;;;27.90;73.50;;;;;;5114723;28;20051;-73
2022/07/15 10:51:49;;;;;;;5.63;2.55;;;28.40;74.20;;;;;;5113008;28;20574;-74
2022/07/15 10:54:18;;;;;;;9.30;2.50;;;28.40;73.50;;;;;;5077899;28;20067;-73
2022/07/15 10:56:47;;;;;;;4.75;2.08;;;28.80;73.00;;;;;;5111964;28;20138;-73
2022/07/15 10:59:21;;;;;;;9.05;2.72;;;28.80;72.90;;;;;;5108733;28;20403;-74
2022/07/15 11:01:50;;;;;;;3.08;2.00;;;28.90;71.70;;;;;;5100099;28;20049;-73
2022/07/15 11:04:18;;;;;;;3.92;2.15;;;28.60;72.70;;;;;;5103257;28;20607;-74
2022/07/15 11:07:09;;;;;;;7.03;2.22;;;28.90;73.50;;;;;;5111730;28;20063;-76
2022/07/15 11:10:11;;;;;;;14.00;3.45;;;28.60;74.40;;;;;;5092566;28;20040;-74
2022/07/15 11:12:37;;;;;;;7.90;2.80;;;28.50;73.20;;;;;;5101813;28;20490;-74
2022/07/15 11:15:16;;;;;;;5.20;2.40;;;28.50;73.10;;;;;;5079329;28;20036;-73
2022/07/15 11:17:45;;;;;;;11.73;2.55;;;28.80;72.20;;;;;;5103088;27;20501;-73
2022/07/15 11:20:15;;;;;;;9.45;2.30;;;29.00;72.20;;;;;;5112361;28;20050;-75
2022/07/15 11:22:42;;;;;;;8.97;3.10;;;28.90;71.30;;;;;;5111541;28;20039;-74
2022/07/15 11:25:20;;;;;;;4.38;2.40;;;29.10;72.50;;;;;;5112011;28;20031;-75
2022/07/15 11:28:18;;;;;;;7.03;2.40;;;29.30;72.30;;;;;;5112177;28;20048;-74
2022/07/15 11:31:04;;;;;;;7.45;2.60;;;28.50;72.50;;;;;;5060826;28;20487;-74
2022/07/15 11:33:30;;;;;;;6.63;2.35;;;28.50;71.90;;;;;;5113652;28;20058;-73
2022/07/15 11:35:58;;;;;;;7.65;2.53;;;28.60;71.50;;;;;;5103156;28;20036;-73
2022/07/15 11:38:29;;;;;;;7.30;2.50;;;28.90;71.40;;;;;;5093801;28;20035;-73
2022/07/15 11:46:30;;;;;;;11.52;2.80;;;28.30;72.50;;;;;;5102714;28;20471;-74
2022/07/15 11:48:56;;;;;;;5.38;2.63;;;28.30;72.30;;;;;;5093147;28;20049;-73
2022/07/15 11:51:30;;;;;;;4.15;2.30;;;28.20;72.20;;;;;;5110666;28;20126;-73
2022/07/15 11:53:58;;;;;;;5.47;2.42;;;28.30;72.10;;;;;;5111946;28;20036;-73
2022/07/15 11:56:24;;;;;;;8.85;2.80;;;28.20;72.50;;;;;;5101163;28;20048;-74
2022/07/15 11:58:56;;;;;;;5.13;2.78;;;28.40;73.20;;;;;;5072730;28;20031;-74
2022/07/15 12:01:29;;;;;;;12.18;2.67;;;28.50;71.90;;;;;;5092322;28;20128;-74
2022/07/15 12:03:57;;;;;;;4.38;2.63;;;28.80;71.30;;;;;;5072605;28;20544;-71
2022/07/15 12:06:32;;;;;;;7.18;2.30;;;29.00;71.00;;;;;;5093117;28;20121;-72
2022/07/15 12:09:05;;;;;;;8.05;2.20;;;28.80;71.30;;;;;;5077093;28;20142;-72
2022/07/15 12:11:37;;;;;;;9.98;2.63;;;29.00;71.90;;;;;;5091225;28;20123;-73
2022/07/15 12:14:05;;;;;;;7.75;2.40;;;28.60;70.80;;;;;;5091182;28;20050;-73
2022/07/15 12:16:35;;;;;;;3.83;2.33;;;28.50;70.50;;;;;;5072809;28;20052;-72
2022/07/15 12:19:09;;;;;;;10.52;2.70;;;28.40;71.00;;;;;;5091556;28;20032;-72
2022/07/15 12:21:38;;;;;;;10.98;2.80;;;28.30;71.50;;;;;;5092144;28;20448;-72
2022/07/15 12:24:11;;;;;;;9.63;2.60;;;28.10;71.90;;;;;;5090968;28;20064;-72
2022/07/15 12:26:57;;;;;;;3.15;2.28;;;28.40;71.30;;;;;;5091481;28;20055;-72
2022/07/15 12:29:29;;;;;;;9.38;3.03;;;28.40;72.40;;;;;;5103677;27;20050;-72
2022/07/15 12:32:02;;;;;;;10.63;3.13;;;28.90;73.50;;;;;;5092031;28;20031;-72
2022/07/15 12:34:46;;;;;;;6.85;2.50;;;28.80;72.00;;;;;;5112205;28;20134;-73
2022/07/15 12:37:18;;;;;;;9.20;2.70;;;28.60;72.00;;;;;;5108809;28;20036;-73
2022/07/15 12:40:07;;;;;;;7.13;2.45;;;28.30;71.70;;;;;;5110015;28;20043;-72
2022/07/15 12:42:44;;;;;;;4.60;2.53;;;28.50;71.90;;;;;;5092488;28;20042;-73
2022/07/15 12:45:17;;;;;;;7.03;2.53;;;28.80;71.50;;;;;;5091180;28;20036;-74
2022/07/15 12:48:03;;;;;;;5.70;2.30;;;28.70;71.90;;;;;;5109127;28;20134;-74
2022/07/15 12:50:33;;;;;;;4.28;2.45;;;28.50;70.90;;;;;;5090569;28;20118;-74
2022/07/15 12:53:00;;;;;;;3.03;2.22;;;28.40;70.10;;;;;;5110435;28;20501;-74
2022/07/15 12:55:31;;;;;;;3.65;2.17;;;28.70;70.30;;;;;;5110021;28;20050;-74
2022/07/15 12:58:12;;;;;;;6.53;2.72;;;28.70;69.40;;;;;;5110392;28;20399;-74
2022/07/15 13:00:38;;;;;;;;;;;28.50;69.40;;;;;;5093060;28;20101;-74
2022/07/15 13:03:07;;;;;;;4.60;2.30;;;28.60;69.80;;;;;;5110234;28;19911;-74
2022/07/15 13:05:39;;;;;;;3.85;2.17;;;28.50;69.30;;;;;;5110516;28;20047;-74
2022/07/15 13:08:16;;;;;;;5.70;2.42;;;28.80;71.00;;;;;;5110930;28;20405;-73
2022/07/15 13:10:45;;;;;;;2.80;2.40;;;28.90;70.40;;;;;;5094279;28;20097;-73
2022/07/15 13:13:13;;;;;;;6.03;2.00;;;28.60;70.10;;;;;;5110783;28;20039;-74
2022/07/15 13:15:40;;;;;;;5.60;2.50;;;28.60;71.00;;;;;;5110291;28;20074;-73
2022/07/15 13:18:06;;;;;;;7.57;2.80;;;28.80;70.40;;;;;;5094081;28;20032;-74
2022/07/15 13:20:32;;;;;;;6.40;2.28;;;28.90;70.60;;;;;;5093888;28;20035;-73
2022/07/15 13:22:59;;;;;;;11.38;2.63;;;28.40;70.10;;;;;;5111589;28;20066;-74
2022/07/15 13:25:26;;;;;;;4.72;2.40;;;28.60;70.70;;;;;;5110139;28;20097;-74
2022/07/15 13:27:52;;;;;;;6.88;2.72;;;28.80;72.10;;;;;;5110164;28;20058;-73
2022/07/15 13:30:18;;;;;;;4.53;2.33;;;28.50;70.20;;;;;;5110493;28;20046;-74
2022/07/15 13:32:44;;;;;;;17.95;3.10;;;28.60;70.80;;;;;;5110161;28;20040;-74
2022/07/15 13:35:11;;;;;;;7.07;2.40;;;28.50;71.00;;;;;;5110213;28;20119;-74
2022/07/15 13:37:38;;;;;;;5.97;2.80;;;28.40;70.50;;;;;;5092260;28;20031;-73
2022/07/15 13:40:06;;;;;;;6.80;2.30;;;28.60;71.10;;;;;;5091992;28;20047;-74
2022/07/15 13:42:33;;;;;;;8.90;2.38;;;28.70;70.20;;;;;;5086473;28;20036;-72
2022/07/15 13:44:59;;;;;;;5.47;2.20;;;28.40;70.70;;;;;;5084189;28;20059;-72
2022/07/15 13:47:25;;;;;;;5.05;2.45;;;28.40;70.40;;;;;;5094668;28;20047;-72
2022/07/15 13:52:46;;;;;;;5.22;2.50;;;28.60;70.50;;;;;;5102701;28;20043;-74
2022/07/15 13:55:13;;;;;;;6.15;2.40;;;28.90;70.20;;;;;;5101945;28;20028;-72
2022/07/15 13:57:40;;;;;;;6.40;2.35;;;28.40;70.10;;;;;;5098497;27;20096;-72
2022/07/15 14:00:09;;;;;;;8.40;2.42;;;28.60;70.10;;;;;;5112993;27;20039;-72
2022/07/15 14:02:35;;;;;;;5.85;2.28;;;28.30;69.70;;;;;;5079159;28;20488;-72
2022/07/15 14:05:01;;;;;;;8.43;2.38;;;28.60;70.70;;;;;;5076948;28;20048;-72
2022/07/15 14:07:26;;;;;;;6.82;2.30;;;28.60;69.70;;;;;;5075497;28;20074;-72
2022/07/15 14:09:52;;;;;;;7.57;2.45;;;28.50;70.10;;;;;;5094971;28;20038;-74
2022/07/15 14:12:18;;;;;;;9.75;3.13;;;28.30;70.00;;;;;;5075032;28;20094;-73
2022/07/15 14:14:44;;;;;;;9.50;2.97;;;28.20;70.00;;;;;;5113664;28;20424;-74
2022/07/15 14:17:10;;;;;;;4.45;2.25;;;28.50;70.50;;;;;;5097922;28;20032;-74
2022/07/15 14:19:35;;;;;;;7.28;2.85;;;28.70;70.00;;;;;;5097203;28;20108;-74
2022/07/15 14:22:01;;;;;;;7.00;2.35;;;28.60;69.60;;;;;;5114056;28;20032;-74
2022/07/15 14:24:27;;;;;;;5.55;2.50;;;28.50;69.50;;;;;;5114245;28;20035;-74
2022/07/15 14:26:53;;;;;;;4.00;2.33;;;28.60;69.40;;;;;;5096973;28;20050;-73
2022/07/15 14:29:19;;;;;;;5.93;2.50;;;28.50;69.90;;;;;;5097784;28;20078;-74
2022/07/15 14:31:44;;;;;;;5.47;2.45;;;28.40;69.20;;;;;;5114761;28;20509;-74
2022/07/15 14:34:11;;;;;;;10.63;2.38;;;28.50;70.00;;;;;;5117196;27;20760;-74
2022/07/15 14:36:36;;;;;;;4.57;2.88;;;28.70;70.20;;;;;;5103429;28;20055;-73
2022/07/15 14:39:02;;;;;;;15.40;2.92;;;28.40;69.70;;;;;;5107904;28;20044;-74
2022/07/15 14:41:28;;;;;;;9.80;2.75;;;28.50;70.50;;;;;;5097222;28;20073;-73
2022/07/15 14:43:54;;;;;;;6.97;2.97;;;28.10;69.60;;;;;;5095395;28;20048;-74
2022/07/15 14:46:20;;;;;;;4.88;2.33;;;28.30;69.80;;;;;;5098630;28;20142;-74
2022/07/15 14:48:45;;;;;;;4.22;2.53;;;28.50;69.60;;;;;;5106012;27;20118;-74
2022/07/15 14:51:11;;;;;;;5.60;2.33;;;28.60;69.50;;;;;;5080858;28;20047;-74
2022/07/15 14:53:37;;;;;;;3.90;2.40;;;28.70;70.40;;;;;;5099905;28;20048;-73
2022/07/15 14:56:03;;;;;;;12.70;3.15;;;28.50;69.70;;;;;;5093447;28;20127;-74
2022/07/15 14:58:29;;;;;;;6.22;2.33;;;28.40;69.00;;;;;;5098901;27;20055;-74
2022/07/15 15:00:55;;;;;;;4.50;2.53;;;28.30;69.20;;;;;;5095094;28;20035;-73
2022/07/15 15:03:21;;;;;;;4.22;2.70;;;28.30;69.70;;;;;;5104736;28;20562;-74
2022/07/15 15:05:46;;;;;;;10.10;2.60;;;28.50;68.90;;;;;;5080385;28;20040;-73
2022/07/15 15:08:12;;;;;;;8.15;2.50;;;28.40;69.30;;;;;;5111810;27;20433;-73
2022/07/15 15:10:38;;;;;;;6.60;2.50;;;28.30;69.50;;;;;;5111626;28;20057;-74
2022/07/15 15:13:04;;;;;;;4.47;2.30;;;28.20;69.60;;;;;;5096441;27;20393;-73
2022/07/15 15:15:30;;;;;;;4.38;2.58;;;28.20;69.20;;;;;;5092920;28;20035;-73
2022/07/15 15:17:55;;;;;;;4.80;2.80;;;28.40;70.50;;;;;;5092697;28;20054;-73
2022/07/15 15:20:21;;;;;;;7.15;2.70;;;28.40;69.10;;;;;;5093013;28;20317;-74
2022/07/15 15:22:47;;;;;;;5.32;3.03;;;28.30;68.60;;;;;;5093032;28;20490;-73
2022/07/15 15:25:13;;;;;;;9.32;3.05;;;28.30;69.70;;;;;;5096889;27;20509;-73
2022/07/15 15:27:39;;;;;;;7.60;2.67;;;28.40;68.80;;;;;;5112613;28;20055;-73
2022/07/15 15:30:07;;;;;;;6.60;2.58;;;28.30;69.50;;;;;;5111333;27;20425;-74
2022/07/15 15:32:33;;;;;;;9.45;3.13;;;28.40;68.70;;;;;;5095694;28;20036;-73
2022/07/15 15:34:58;;;;;;;5.47;2.33;;;28.20;68.50;;;;;;5094362;28;20044;-74
2022/07/15 15:37:24;;;;;;;3.53;2.47;;;28.30;69.30;;;;;;5094196;28;20432;-73
2022/07/15 15:39:50;;;;;;;8.85;3.28;;;28.20;68.90;;;;;;5112712;28;20028;-73
2022/07/15 15:42:16;;;;;;;6.43;2.72;;;28.10;68.80;;;;;;5094632;28;20035;-73
2022/07/15 15:44:41;;;;;;;11.40;2.75;;;28.20;68.70;;;;;;5112708;28;20046;-73
2022/07/15 15:47:07;;;;;;;6.88;2.20;;;28.40;68.70;;;;;;5113126;28;20063;-72
2022/07/15 15:49:36;;;;;;;5.28;2.60;;;28.20;68.70;;;;;;5112961;28;20188;-74
2022/07/15 15:52:03;;;;;;;8.68;2.53;;;28.00;69.60;;;;;;5112263;28;20524;-73
2022/07/15 15:54:29;;;;;;;6.75;2.83;;;28.00;69.30;;;;;;5112650;28;20035;-73
2022/07/15 15:56:55;;;;;;;5.43;2.53;;;27.90;68.70;;;;;;5112881;28;20054;-73
2022/07/15 15:59:20;;;;;;;7.05;2.78;;;27.80;69.00;;;;;;5114584;28;20480;-73
2022/07/15 16:01:46;;;;;;;4.95;2.58;;;27.70;69.50;;;;;;5111760;28;20052;-73
2022/07/15 16:04:12;;;;;;;4.93;2.67;;;27.80;69.30;;;;;;5092352;28;20544;-73
2022/07/15 16:06:38;;;;;;;6.55;3.08;;;27.80;69.50;;;;;;5092120;28;20147;-74
2022/07/15 16:09:04;;;;;;;6.55;2.80;;;27.80;68.80;;;;;;5075572;28;20551;-73
2022/07/15 16:11:29;;;;;;;4.78;2.50;;;27.80;69.30;;;;;;5093721;28;20054;-73
2022/07/15 16:13:55;;;;;;;7.22;2.83;;;27.80;69.50;;;;;;5091907;28;20027;-73
2022/07/15 16:16:21;;;;;;;5.97;3.03;;;27.80;69.90;;;;;;5092164;28;20048;-73
2022/07/15 16:18:47;;;;;;;7.72;2.95;;;27.80;70.50;;;;;;5092587;28;20486;-73
2022/07/15 16:21:12;;;;;;;7.47;3.30;;;27.70;70.10;;;;;;5091647;28;20036;-73
2022/07/15 16:23:38;;;;;;;7.22;2.75;;;27.70;70.10;;;;;;5073211;28;20525;-73
2022/07/15 16:26:04;;;;;;;7.93;3.20;;;27.50;69.50;;;;;;5074137;28;20402;-73
2022/07/15 16:28:30;;;;;;;4.88;2.65;;;27.60;70.30;;;;;;5075340;28;20040;-73
2022/07/15 16:30:55;;;;;;;9.27;2.83;;;27.70;70.30;;;;;;5093510;28;20036;-73
2022/07/15 16:33:21;;;;;;;8.68;2.72;;;27.60;70.00;;;;;;5093493;28;20044;-73
2022/07/15 16:35:48;;;;;;;5.88;3.08;;;27.40;70.10;;;;;;5106742;28;20049;-73
2022/07/15 16:38:13;;;;;;;10.73;2.80;;;27.60;70.70;;;;;;5113310;28;20043;-73
2022/07/15 16:40:39;;;;;;;7.20;3.33;;;27.50;70.70;;;;;;5109774;28;20024;-73
2022/07/15 16:43:06;;;;;;;14.45;3.72;;;27.40;70.00;;;;;;5099160;28;20062;-73
2022/07/15 16:45:32;;;;;;;7.82;2.50;;;27.50;70.50;;;;;;5074098;28;20042;-73
2022/07/15 16:47:59;;;;;;;6.85;2.80;;;27.30;70.30;;;;;;5092107;28;20086;-73
2022/07/15 16:50:25;;;;;;;4.82;2.80;;;27.30;70.60;;;;;;5091228;28;20063;-73
2022/07/15 16:52:51;;;;;;;9.63;2.97;;;27.20;70.10;;;;;;5092355;28;20047;-72
2022/07/15 16:55:16;;;;;;;6.32;3.00;;;27.20;70.50;;;;;;5093950;28;20405;-73
2022/07/15 16:57:42;;;;;;;8.35;3.45;;;27.10;70.70;;;;;;5111384;28;20085;-73
2022/07/15 17:00:12;;;;;;;5.53;2.75;;;27.30;70.20;;;;;;5111805;28;20077;-74
2022/07/15 17:02:38;;;;;;;5.90;2.63;;;27.10;71.00;;;;;;5108621;28;20039;-73
2022/07/15 17:05:05;;;;;;;7.78;2.88;;;27.10;70.90;;;;;;5105111;28;20517;-73
2022/07/15 17:07:32;;;;;;;6.50;2.97;;;27.20;71.00;;;;;;5088949;28;20675;-73
2022/07/15 17:09:58;;;;;;;6.68;2.35;;;27.10;70.70;;;;;;5071479;28;20074;-74
2022/07/15 17:12:24;;;;;;;11.48;3.40;;;27.10;70.40;;;;;;5072428;28;20390;-74
2022/07/15 17:14:50;;;;;;;11.20;3.20;;;27.10;70.80;;;;;;5090467;28;20027;-73
2022/07/15 17:17:17;;;;;;;6.40;2.70;;;27.10;70.70;;;;;;5090644;28;20389;-73
2022/07/15 17:19:43;;;;;;;6.68;2.80;;;27.10;70.70;;;;;;5090254;28;20059;-74
2022/07/15 17:22:09;;;;;;;9.80;2.53;;;27.00;70.50;;;;;;5090516;28;20081;-73
2022/07/15 17:24:35;;;;;;;8.57;2.88;;;27.00;71.40;;;;;;5077338;28;20375;-73
2022/07/15 17:27:00;;;;;;;10.23;3.38;;;26.90;70.70;;;;;;5102173;28;20752;-74
2022/07/15 17:29:26;;;;;;;4.78;2.67;;;26.90;71.00;;;;;;5115560;28;20031;-74
2022/07/15 17:31:52;;;;;;;8.10;3.22;;;26.80;70.80;;;;;;5116328;28;20043;-74
2022/07/15 17:34:18;;;;;;;7.22;2.60;;;26.80;70.60;;;;;;5088440;28;20067;-73
2022/07/15 17:36:44;;;;;;;5.80;2.80;;;26.80;70.70;;;;;;5108320;27;20040;-74
2022/07/15 17:39:11;;;;;;;7.68;2.90;;;26.80;71.00;;;;;;5103940;28;20046;-74
2022/07/15 17:41:37;;;;;;;7.38;3.15;;;26.70;70.80;;;;;;5115115;28;20155;-74
2022/07/15 17:44:03;;;;;;;5.75;2.97;;;26.60;70.90;;;;;;5113023;27;20125;-74
2022/07/15 17:46:30;;;;;;;8.05;2.97;;;26.60;70.80;;;;;;5101997;27;20160;-74
2022/07/15 17:48:55;;;;;;;11.95;3.28;;;26.50;70.80;;;;;;5108258;28;20046;-74
2022/07/15 17:52:37;;;;;;;10.45;3.00;;;26.60;71.00;;;;;;5149891;27;20123;-73
2022/07/15 17:55:04;;;;;;;4.68;2.78;;;26.50;71.10;;;;;;5150210;27;20401;-74
2022/07/15 18:00:51;;;;;;;4.05;2.53;;;26.40;70.70;;;;;;5131269;27;20132;-74
2022/07/15 18:03:18;;;;;;;9.48;3.20;;;26.40;71.50;;;;;;5112756;28;20043;-74
2022/07/15 18:05:47;;;;;;;6.20;2.90;;;26.30;71.70;;;;;;5109824;28;20071;-73
2022/07/15 18:08:13;;;;;;;4.60;3.00;;;26.30;71.70;;;;;;5128995;28;20043;-73
2022/07/15 18:10:41;;;;;;;6.28;3.00;;;26.20;71.40;;;;;;5128762;28;20051;-72
2022/07/15 18:13:07;;;;;;;9.75;2.95;;;26.20;71.60;;;;;;5129261;28;20043;-71
2022/07/15 18:15:33;;;;;;;9.05;3.00;;;26.20;71.40;;;;;;5128890;28;20047;-72
2022/07/15 18:17:59;;;;;;;4.03;2.63;;;26.10;71.40;;;;;;5110362;28;20047;-73
2022/07/15 18:20:25;;;;;;;9.00;3.38;;;26.10;71.50;;;;;;5110067;27;20058;-73
2022/07/15 18:22:51;;;;;;;5.20;2.40;;;26.00;71.50;;;;;;5128272;28;20042;-71
2022/07/15 18:25:18;;;;;;;8.25;2.97;;;25.90;71.30;;;;;;5124143;28;20081;-71
2022/07/15 18:27:43;;;;;;;6.70;2.70;;;25.90;71.30;;;;;;5106281;28;20502;-73
2022/07/15 18:30:10;;;;;;;6.20;3.00;;;25.80;71.20;;;;;;5108910;28;20078;-75
2022/07/15 18:32:35;;;;;;;10.68;2.97;;;25.80;71.60;;;;;;5105906;28;20039;-76
2022/07/15 18:35:01;;;;;;;12.05;3.70;;;25.70;71.60;;;;;;5106130;28;20495;-76
2022/07/15 18:37:27;;;;;;;9.38;3.38;;;25.70;71.80;;;;;;5110266;28;20111;-76
2022/07/15 18:39:53;;;;;;;11.50;3.20;;;25.70;71.90;;;;;;5110196;28;20056;-76
2022/07/15 18:42:19;;;;;;;5.47;2.97;;;25.60;71.70;;;;;;5109913;28;20031;-76
2022/07/15 18:44:44;;;;;;;10.07;3.10;;;25.60;71.60;;;;;;5109715;28;20048;-75
2022/07/15 18:47:10;;;;;;;6.32;3.10;;;25.50;71.70;;;;;;5109799;28;20482;-76
2022/07/15 18:49:36;;;;;;;6.45;3.17;;;25.50;72.00;;;;;;5110059;28;20383;-76
2022/07/15 18:52:02;;;;;;;4.65;2.60;;;25.40;72.30;;;;;;5109999;28;20059;-75
2022/07/15 18:54:27;;;;;;;5.25;3.28;;;25.30;72.30;;;;;;5109864;28;20047;-75
2022/07/15 18:56:53;;;;;;;4.45;2.90;;;25.30;71.90;;;;;;5109937;28;20046;-75
2022/07/15 18:59:19;;;;;;;14.77;3.10;;;25.20;71.90;;;;;;5091460;28;20051;-76
2022/07/15 19:01:44;;;;;;;7.18;2.55;;;25.20;71.80;;;;;;5091531;28;20870;-75
2022/07/15 19:04:11;;;;;;;7.10;2.75;;;25.10;71.80;;;;;;5109852;28;20050;-75
2022/07/15 19:06:36;;;;;;;3.15;2.47;;;25.10;71.80;;;;;;5109765;28;20035;-75
2022/07/15 19:09:03;;;;;;;7.18;2.83;;;25.00;71.80;;;;;;5109772;28;20677;-76
2022/07/15 19:11:29;;;;;;;9.07;2.92;;;24.90;72.00;;;;;;5099960;28;20067;-75
2022/07/15 19:13:55;;;;;;;6.03;2.85;;;24.80;72.00;;;;;;5108395;28;20036;-75
2022/07/15 19:16:21;;;;;;;5.78;2.95;;;24.80;71.80;;;;;;5097696;28;20759;-76
2022/07/15 19:18:47;;;;;;;9.57;3.38;;;24.70;71.80;;;;;;5116006;28;20093;-75
2022/07/15 19:21:13;;;;;;;5.40;2.90;;;24.70;72.00;;;;;;5116263;28;20502;-76
2022/07/15 19:23:39;;;;;;;10.85;3.20;;;24.60;72.00;;;;;;5116204;28;20052;-76
2022/07/15 19:26:05;;;;;;;6.18;2.78;;;24.50;72.10;;;;;;5116142;28;20035;-76
2022/07/15 19:28:31;;;;;;;6.22;2.80;;;24.50;72.20;;;;;;5116170;28;20035;-76
2022/07/15 19:30:57;;;;;;;6.05;3.35;;;24.40;72.70;;;;;;5115873;28;20127;-76
2022/07/15 19:33:24;;;;;;;5.15;3.05;;;24.20;73.80;;;;;;5097737;28;20069;-76
2022/07/15 19:35:50;;;;;;;7.10;3.15;;;24.00;77.30;;;;;;5115989;28;20108;-76
2022/07/15 19:38:16;;;;;;;8.73;3.22;;;23.80;74.70;;;;;;5115947;28;20031;-75
2022/07/15 19:40:44;;;;;;;6.68;3.20;;;23.70;75.00;;;;;;5115746;28;20062;-75
2022/07/15 19:43:10;;;;;;;9.98;2.97;;;23.70;75.10;;;;;;5115752;28;20109;-76
2022/07/15 19:45:36;;;;;;;12.90;3.20;;;23.60;79.70;;;;;;5115708;28;20447;-76
2022/07/15 19:48:02;;;;;;;8.77;3.28;;;23.60;75.60;;;;;;5115814;28;20047;-76
2022/07/15 19:50:29;;;;;;;5.38;2.90;;;23.60;75.10;;;;;;5115702;28;20056;-75
2022/07/15 19:52:55;;;;;;;11.85;4.03;;;23.50;75.60;;;;;;5115678;28;20039;-75
2022/07/15 19:55:22;;;;;;;5.85;3.13;;;23.40;75.40;;;;;;5115699;28;20047;-75
2022/07/15 19:57:48;;;;;;;6.05;2.72;;;23.40;75.50;;;;;;5097423;28;20578;-75
2022/07/15 20:00:17;;;;;;;6.80;3.28;;;23.30;78.40;;;;;;5115429;28;20150;-76
2022/07/15 20:02:58;;;;;;;7.95;2.90;;;23.30;80.80;;;;;;5115535;28;20118;-76
2022/07/15 20:05:25;;;;;;;13.95;2.60;;;23.40;91.20;;;;;;5115536;28;20494;-76
2022/07/15 20:07:51;;;;;;;6.30;3.03;;;;;;;;;;5114513;28;20130;-74
2022/07/15 20:10:18;;;;;;;7.25;2.75;;;23.30;96.20;;;;;;5108423;28;20036;-74
2022/07/15 20:12:45;;;;;;;8.07;3.13;;;23.10;75.80;;;;;;5094269;28;20048;-74
2022/07/15 20:15:15;;;;;;;6.10;2.75;;;23.00;75.80;;;;;;5085583;28;20046;-72
2022/07/15 20:17:40;;;;;;;8.30;2.88;;;23.00;75.70;;;;;;5073701;28;20118;-72
2022/07/15 20:20:07;;;;;;;11.65;3.05;;;23.00;75.80;;;;;;5108258;27;20044;-73
2022/07/15 20:22:33;;;;;;;5.70;3.47;;;23.00;75.80;;;;;;5080143;28;20156;-73
2022/07/15 20:24:58;;;;;;;8.27;3.17;;;23.00;76.00;;;;;;5111835;28;20514;-73
2022/07/15 20:27:24;;;;;;;6.72;3.22;;;22.90;76.10;;;;;;5113535;28;20084;-73
2022/07/15 20:29:50;;;;;;;6.55;3.28;;;22.90;76.10;;;;;;5092528;28;20042;-72
2022/07/15 20:32:16;;;;;;;11.50;2.97;;;22.90;82.00;;;;;;5094391;28;20040;-72
2022/07/15 20:34:42;;;;;;;7.13;3.08;;;22.80;77.40;;;;;;5094004;28;20035;-73
2022/07/15 20:37:08;;;;;;;5.45;2.90;;;22.70;76.70;;;;;;5093279;28;20563;-73
2022/07/15 20:39:34;;;;;;;4.28;2.90;;;22.60;76.70;;;;;;5112054;28;20058;-73
2022/07/15 20:42:00;;;;;;;4.32;2.78;;;22.60;76.90;;;;;;5093086;28;20047;-73
2022/07/15 20:44:25;;;;;;;5.72;2.90;;;22.50;77.00;;;;;;5092936;28;20513;-73
2022/07/15 20:46:51;;;;;;;5.95;2.90;;;22.60;76.80;;;;;;5113641;28;20532;-73
2022/07/15 20:49:19;;;;;;;5.63;2.30;;;22.70;76.70;;;;;;5095218;28;20043;-72
2022/07/15 20:51:49;;;;;;;6.88;2.45;;;22.70;76.00;;;;;;5086189;28;20040;-72
2022/07/15 20:54:16;;;;;;;10.38;3.00;;;22.70;76.20;;;;;;5106770;28;20075;-72
2022/07/15 20:56:42;;;;;;;5.90;3.08;;;22.60;76.10;;;;;;5119868;27;20031;-74
2022/07/15 20:59:08;;;;;;;5.28;2.83;;;22.60;76.70;;;;;;5084507;28;20126;-73
2022/07/15 21:01:35;;;;;;;5.38;2.67;;;22.50;76.10;;;;;;5091724;28;20559;-72
2022/07/15 21:04:01;;;;;;;5.55;2.60;;;22.50;75.80;;;;;;5091490;28;20036;-72
2022/07/15 21:06:27;;;;;;;5.32;2.92;;;22.60;75.60;;;;;;5092666;28;20059;-73
2022/07/15 21:08:54;;;;;;;5.38;3.00;;;22.60;75.40;;;;;;5098645;27;20054;-73
2022/07/15 21:11:20;;;;;;;6.13;2.70;;;22.50;75.50;;;;;;5109581;27;20062;-73
2022/07/15 21:13:46;;;;;;;11.07;2.60;;;22.50;75.30;;;;;;5115180;27;20031;-73
2022/07/15 21:16:12;;;;;;;5.03;2.53;;;22.50;75.40;;;;;;5122029;27;20044;-73
2022/07/15 21:18:38;;;;;;;7.95;2.35;;;22.40;75.20;;;;;;5123476;27;20067;-75
2022/07/15 21:21:05;;;;;;;10.88;2.90;;;22.40;75.20;;;;;;5114826;27;20055;-75
2022/07/15 21:23:31;;;;;;;6.32;2.88;;;22.40;75.20;;;;;;5109033;28;20089;-75
2022/07/15 21:28:42;;;;;;;11.18;2.88;;;22.40;75.30;;;;;;5109006;27;20481;-74
2022/07/15 21:31:07;;;;;;;3.80;2.38;;;22.40;75.50;;;;;;5092098;27;20043;-75
2022/07/15 21:33:33;;;;;;;8.38;2.67;;;;;;;;;;5109621;28;20038;-75
2022/07/15 21:35:59;;;;;;;3.83;2.80;;;22.20;75.40;;;;;;5099738;27;20497;-75
2022/07/15 21:38:25;;;;;;;7.60;2.45;;;22.30;77.90;;;;;;5121610;27;20116;-76
2022/07/15 21:40:51;;;;;;;6.72;2.83;;;22.20;77.00;;;;;;5127529;27;20099;-76
2022/07/15 21:43:18;;;;;;;6.07;2.55;;;22.20;75.50;;;;;;5114673;27;20047;-76
2022/07/15 21:45:47;;;;;;;6.57;2.95;;;22.30;76.40;;;;;;5128022;27;20089;-76
2022/07/15 21:48:13;;;;;;;9.38;3.22;;;22.30;76.80;;;;;;5103736;28;20038;-76
2022/07/15 21:50:40;;;;;;;6.13;2.78;;;22.30;76.40;;;;;;5117952;27;20498;-75
2022/07/15 21:53:06;;;;;;;7.38;2.90;;;22.30;75.80;;;;;;5108920;27;20130;-76
2022/07/15 21:55:32;;;;;;;7.43;2.60;;;22.30;75.60;;;;;;5099214;28;20043;-76
2022/07/15 21:57:59;;;;;;;5.35;2.95;;;22.30;75.40;;;;;;5118482;28;20060;-76
2022/07/15 22:00:40;;;;;;;3.75;2.80;;;22.40;75.20;;;;;;5112103;28;20047;-76
2022/07/15 22:03:11;;;;;;;9.55;2.65;;;22.40;74.50;;;;;;5110474;28;20047;-77
2022/07/15 22:05:38;;;;;;;6.85;2.72;;;22.60;73.90;;;;;;5116735;28;20084;-76
2022/07/15 22:08:05;;;;;;;5.72;2.60;;;22.90;73.20;;;;;;5106588;28;20050;-77
2022/07/15 22:10:31;;;;;;;6.85;2.63;;;23.00;72.90;;;;;;5124566;28;20043;-77
2022/07/15 22:12:57;;;;;;;7.55;2.70;;;22.90;72.00;;;;;;5117692;28;20048;-77
2022/07/15 22:15:23;;;;;;;7.32;2.58;;;22.90;71.40;;;;;;5129872;28;20039;-77
2022/07/15 22:17:49;;;;;;;6.78;2.17;;;22.80;71.30;;;;;;5114697;28;20035;-77
2022/07/15 22:20:17;;;;;;;7.50;2.17;;;22.80;70.50;;;;;;5120158;28;20078;-77